createdAt,value
2019-04-20T00:01:26.749Z,17.10
2019-04-20T00:03:56.938Z,17.20
2019-04-20T00:06:31.698Z,17.20
2019-04-20T00:09:13.987Z,17.10
2019-04-20T00:11:55.663Z,17.10
2019-04-20T00:14:24.013Z,17.10
2019-04-20T00:16:52.774Z,17.10
2019-04-20T00:19:31.868Z,17.00
2019-04-20T00:22:10.149Z,17.00
2019-04-20T00:24:51.606Z,17.00
2019-04-20T00:27:42.773Z,16.90
2019-04-20T00:30:26.422Z,16.90
2019-04-20T00:32:46.907Z,16.90
2019-04-20T00:35:08.727Z,16.80
2019-04-20T00:37:42.917Z,16.80
2019-04-20T00:40:17.039Z,16.70
2019-04-20T00:42:53.851Z,16.70
2019-04-20T00:45:28.711Z,16.60
2019-04-20T00:48:06.024Z,16.60
2019-04-20T00:50:49.096Z,16.70
2019-04-20T00:53:21.624Z,16.70
2019-04-20T00:55:44.688Z,16.70
2019-04-20T00:58:27.344Z,16.60
2019-04-20T01:01:12.839Z,16.50
2019-04-20T01:03:43.484Z,16.40
2019-04-20T01:06:46.677Z,16.30
2019-04-20T01:09:20.361Z,16.20
2019-04-20T01:11:54.483Z,16.00
2019-04-20T01:14:36.122Z,15.80
2019-04-20T01:17:11.157Z,15.50
2019-04-20T01:19:37.814Z,15.30
2019-04-20T01:22:16.216Z,15.00
2019-04-20T01:24:48.179Z,14.70
2019-04-20T01:27:32.474Z,14.40
2019-04-20T01:30:07.469Z,14.20
2019-04-20T01:32:49.745Z,14.00
2019-04-20T01:35:22.661Z,13.90
2019-04-20T01:37:57.424Z,13.80
2019-04-20T01:40:14.844Z,13.60
2019-04-20T01:42:48.837Z,13.60
2019-04-20T01:45:27.860Z,13.40
2019-04-20T01:47:59.453Z,13.30
2019-04-20T01:50:34.950Z,13.20
2019-04-20T01:53:16.725Z,13.10
2019-04-20T01:56:00.016Z,13.00
2019-04-20T01:58:58.511Z,12.90
2019-04-20T02:01:25.951Z,12.90
2019-04-20T02:04:03.116Z,12.70
2019-04-20T02:06:42.615Z,12.70
2019-04-20T02:09:16.758Z,12.60
2019-04-20T02:11:49.792Z,12.50
2019-04-20T02:14:30.780Z,12.40
2019-04-20T02:17:06.545Z,12.30
2019-04-20T02:19:50.178Z,12.20
2019-04-20T02:22:17.269Z,12.10
2019-04-20T02:24:40.651Z,12.00
2019-04-20T02:27:14.685Z,12.00
2019-04-20T02:30:13.865Z,12.00
2019-04-20T02:33:07.507Z,11.90
2019-04-20T02:36:11.059Z,11.90
2019-04-20T02:39:13.394Z,11.90
2019-04-20T02:41:35.991Z,11.80
2019-04-20T02:44:18.066Z,11.70
2019-04-20T02:46:45.293Z,11.60
2019-04-20T02:49:19.643Z,11.50
2019-04-20T02:51:52.648Z,11.50
2019-04-20T02:54:18.565Z,11.50
2019-04-20T02:59:54.106Z,11.30
2019-04-20T03:01:54.702Z,11.30
2019-04-20T03:04:23.448Z,11.20
2019-04-20T03:07:05.242Z,11.20
2019-04-20T03:09:40.479Z,11.20
2019-04-20T03:12:16.999Z,11.20
2019-04-20T03:14:45.004Z,11.10
2019-04-20T03:17:29.712Z,11.10
2019-04-20T03:19:52.535Z,11.00
2019-04-20T03:22:51.219Z,11.00
2019-04-20T03:25:22.545Z,10.90
2019-04-20T03:28:00.918Z,10.90
2019-04-20T03:31:20.829Z,10.80
2019-04-20T03:33:31.376Z,10.80
2019-04-20T03:36:07.492Z,10.80
2019-04-20T03:38:29.566Z,10.70
2019-04-20T03:40:56.482Z,10.60
2019-04-20T03:43:18.152Z,10.60
2019-04-20T03:45:57.976Z,10.60
2019-04-20T03:48:40.925Z,10.60
2019-04-20T03:51:25.097Z,10.60
2019-04-20T03:54:08.591Z,10.50
2019-04-20T03:57:27.194Z,10.50
2019-04-20T04:00:00.692Z,10.50
2019-04-20T04:05:32.497Z,10.40
2019-04-20T04:08:00.085Z,10.40
2019-04-20T04:10:35.320Z,10.40
2019-04-20T04:13:18.882Z,10.40
2019-04-20T04:15:57.578Z,10.30
2019-04-20T04:18:33.300Z,10.30
2019-04-20T04:21:07.967Z,10.30
2019-04-20T04:23:48.998Z,10.20
2019-04-20T04:26:27.059Z,10.20
2019-04-20T04:29:08.300Z,10.10
2019-04-20T04:31:53.521Z,10.10
2019-04-20T04:34:14.732Z,10.10
2019-04-20T04:36:53.758Z,10.00
2019-04-20T04:39:27.466Z,10.00
2019-04-20T04:42:11.648Z,9.90
2019-04-20T04:44:30.246Z,9.90
2019-04-20T04:46:57.633Z,9.90
2019-04-20T04:49:31.370Z,10.00
2019-04-20T04:52:06.169Z,10.00
2019-04-20T04:54:44.598Z,10.10
2019-04-20T04:57:09.485Z,10.10
2019-04-20T04:59:42.645Z,10.00
2019-04-20T05:02:15.971Z,10.10
2019-04-20T05:05:32.426Z,10.10
2019-04-20T05:07:57.631Z,10.20
2019-04-20T05:10:20.647Z,10.20
2019-04-20T05:12:54.797Z,10.30
2019-04-20T05:15:42.427Z,10.30
2019-04-20T05:18:28.521Z,10.40
2019-04-20T05:20:58.857Z,10.50
2019-04-20T05:23:32.004Z,10.60
2019-04-20T05:26:38.511Z,10.60
2019-04-20T05:28:59.089Z,10.70
2019-04-20T05:31:36.365Z,10.80
2019-04-20T05:34:25.551Z,10.90
2019-04-20T05:36:57.414Z,11.00
2019-04-20T05:39:32.629Z,11.10
2019-04-20T05:42:02.981Z,11.30
2019-04-20T05:44:47.170Z,11.40
2019-04-20T05:47:16.988Z,11.50
2019-04-20T05:49:50.175Z,11.60
2019-04-20T05:52:35.176Z,11.80
2019-04-20T05:55:02.966Z,12.00
2019-04-20T05:57:40.133Z,12.10
2019-04-20T06:00:14.174Z,12.30
2019-04-20T06:02:45.157Z,12.40
2019-04-20T06:05:23.906Z,12.60
2019-04-20T06:07:53.460Z,12.80
2019-04-20T06:10:31.865Z,13.00
2019-04-20T06:13:07.509Z,13.10
2019-04-20T06:15:53.910Z,13.30
2019-04-20T06:18:25.290Z,13.50
2019-04-20T06:21:13.670Z,13.70
2019-04-20T06:29:02.907Z,14.20
2019-04-20T06:31:35.580Z,14.40
2019-04-20T06:34:30.335Z,14.60
2019-04-20T06:36:55.840Z,14.80
2019-04-20T06:44:57.789Z,15.20
2019-04-20T06:47:18.904Z,15.40
2019-04-20T06:49:52.985Z,15.70
2019-04-20T06:52:49.179Z,15.70
2019-04-20T06:55:30.554Z,15.90
2019-04-20T06:58:01.027Z,16.10
2019-04-20T07:00:39.619Z,16.30
2019-04-20T07:03:17.786Z,16.40
2019-04-20T07:05:47.800Z,16.50
2019-04-20T07:08:37.339Z,16.70
2019-04-20T07:10:59.363Z,16.70
2019-04-20T07:13:23.996Z,16.90
2019-04-20T07:16:21.345Z,16.90
2019-04-20T07:19:24.132Z,17.10
2019-04-20T07:22:33.494Z,17.20
2019-04-20T07:24:56.450Z,17.40
2019-04-20T07:27:29.548Z,17.50
2019-04-20T07:30:06.309Z,17.70
2019-04-20T07:32:49.847Z,17.80
2019-04-20T07:35:14.488Z,18.00
2019-04-20T07:40:24.407Z,18.30
2019-04-20T07:42:58.986Z,18.30
2019-04-20T07:45:33.235Z,18.40
2019-04-20T07:48:18.011Z,18.50
2019-04-20T07:50:38.102Z,18.70
2019-04-20T07:53:17.146Z,18.90
2019-04-20T07:56:02.462Z,19.00
2019-04-20T07:58:22.839Z,19.00
2019-04-20T08:01:16.631Z,18.90
2019-04-20T08:03:55.720Z,19.00
2019-04-20T08:06:20.072Z,19.20
2019-04-20T08:09:05.657Z,19.20
2019-04-20T08:11:46.928Z,19.40
2019-04-20T08:14:19.240Z,19.70
2019-04-20T08:17:09.709Z,19.80
2019-04-20T08:19:23.490Z,20.00
2019-04-20T08:21:58.596Z,20.20
2019-04-20T08:24:32.857Z,20.20
2019-04-20T08:27:03.857Z,20.40
2019-04-20T08:29:51.430Z,20.50
2019-04-20T08:32:50.650Z,20.60
2019-04-20T08:35:31.999Z,20.60
2019-04-20T08:38:24.139Z,20.60
2019-04-20T08:40:43.743Z,20.70
2019-04-20T08:43:32.683Z,20.70
2019-04-20T08:45:57.089Z,20.80
2019-04-20T08:48:31.434Z,21.00
2019-04-20T08:51:02.358Z,20.90
2019-04-20T08:53:36.903Z,20.90
2019-04-20T08:56:03.295Z,21.20
2019-04-20T08:58:25.039Z,21.40
2019-04-20T09:01:02.038Z,21.60
2019-04-20T09:03:46.240Z,21.20
2019-04-20T09:06:25.316Z,21.20
2019-04-20T09:09:17.370Z,21.30
2019-04-20T09:11:49.299Z,21.50
2019-04-20T09:14:21.389Z,21.70
2019-04-20T09:17:07.266Z,22.10
2019-04-20T09:19:46.976Z,22.50
2019-04-20T09:22:44.089Z,22.50
2019-04-20T09:28:11.542Z,22.90
2019-04-20T09:30:50.493Z,22.60
2019-04-20T09:33:48.475Z,22.90
2019-04-20T09:36:22.576Z,23.10
2019-04-20T09:39:11.504Z,23.30
2019-04-20T09:42:05.071Z,23.80
2019-04-20T09:44:31.508Z,24.10
2019-04-20T09:47:02.963Z,24.20
2019-04-20T09:49:46.095Z,24.40
2019-04-20T09:52:21.178Z,24.10
2019-04-20T09:55:00.426Z,23.90
2019-04-20T09:57:37.973Z,24.40
2019-04-20T10:00:12.157Z,24.70
2019-04-20T10:02:32.790Z,24.70
2019-04-20T10:05:05.318Z,23.90
2019-04-20T10:07:40.162Z,24.30
2019-04-20T10:10:22.665Z,24.40
2019-04-20T10:12:48.051Z,24.20
2019-04-20T10:15:23.397Z,24.20
2019-04-20T10:17:56.122Z,24.20
2019-04-20T10:20:32.824Z,24.80
2019-04-20T10:23:04.655Z,24.00
2019-04-20T10:25:38.445Z,24.20
2019-04-20T10:28:11.811Z,24.50
2019-04-20T10:30:44.826Z,24.60
2019-04-20T10:33:19.567Z,24.80
2019-04-20T10:35:53.917Z,25.50
2019-04-20T10:38:33.975Z,26.00
2019-04-20T10:41:13.010Z,26.30
2019-04-20T10:43:39.041Z,26.90
2019-04-20T10:46:13.180Z,27.40
2019-04-20T10:48:49.878Z,27.50
2019-04-20T10:51:21.789Z,27.20
2019-04-20T10:53:56.095Z,27.30
2019-04-20T10:56:29.519Z,27.10
2019-04-20T10:59:03.435Z,26.50
2019-04-20T11:01:37.850Z,27.00
2019-04-20T11:04:10.835Z,27.70
2019-04-20T11:06:44.746Z,28.30
2019-04-20T11:09:18.490Z,27.80
2019-04-20T11:11:52.397Z,28.00
2019-04-20T11:14:31.382Z,28.10
2019-04-20T11:17:00.333Z,28.20
2019-04-20T11:19:33.595Z,28.20
2019-04-20T11:22:06.706Z,28.50
2019-04-20T11:24:40.547Z,29.10
2019-04-20T11:27:14.276Z,29.00
2019-04-20T11:29:47.261Z,29.00
2019-04-20T11:32:20.242Z,29.10
2019-04-20T11:34:53.321Z,29.50
2019-04-20T11:37:26.819Z,29.40
2019-04-20T11:40:01.188Z,29.20
2019-04-20T11:42:35.370Z,28.10
2019-04-20T11:45:08.909Z,27.80
2019-04-20T11:47:43.268Z,27.20
2019-04-20T11:50:17.812Z,27.70
2019-04-20T11:52:51.503Z,28.50
2019-04-20T11:55:24.513Z,29.10
2019-04-20T11:57:58.279Z,29.30
2019-04-20T12:00:46.963Z,29.80
2019-04-20T12:03:37.864Z,30.00
2019-04-20T12:06:07.027Z,29.40
2019-04-20T12:08:41.027Z,29.50
2019-04-20T12:11:30.210Z,29.70
2019-04-20T12:13:50.299Z,30.00
2019-04-20T12:16:23.626Z,30.30
2019-04-20T12:18:56.973Z,30.10
2019-04-20T12:21:30.725Z,29.50
2019-04-20T12:24:04.485Z,28.70
2019-04-20T12:26:38.655Z,29.10
2019-04-20T12:29:11.956Z,28.70
2019-04-20T12:31:51.075Z,28.70
2019-04-20T12:34:20.404Z,29.30
2019-04-20T12:36:53.342Z,29.80
2019-04-20T12:39:27.016Z,30.30
2019-04-20T12:42:03.962Z,28.80
2019-04-20T12:44:35.488Z,29.30
2019-04-20T12:47:08.708Z,30.10
2019-04-20T12:49:43.351Z,30.70
2019-04-20T12:52:16.670Z,30.70
2019-04-20T12:54:50.452Z,30.70
2019-04-20T12:57:24.772Z,30.80
2019-04-20T12:59:57.611Z,30.60
2019-04-20T13:02:31.458Z,30.20
2019-04-20T13:05:07.222Z,30.30
2019-04-20T13:07:45.559Z,30.70
2019-04-20T13:10:15.952Z,30.40
2019-04-20T13:13:04.712Z,30.70
2019-04-20T13:15:58.391Z,30.80
2019-04-20T13:18:45.352Z,30.50
2019-04-20T13:21:19.012Z,30.80
2019-04-20T13:23:53.157Z,30.80
2019-04-20T13:26:26.992Z,30.80
2019-04-20T13:29:00.997Z,30.90
2019-04-20T13:31:34.092Z,31.10
2019-04-20T13:34:07.561Z,29.70
2019-04-20T13:36:40.579Z,30.10
2019-04-20T13:39:14.303Z,31.00
2019-04-20T13:42:02.416Z,31.20
2019-04-20T13:44:22.144Z,31.80
2019-04-20T13:46:54.990Z,31.80
2019-04-20T13:49:29.147Z,32.20
2019-04-20T13:52:02.541Z,32.60
2019-04-20T13:54:35.849Z,32.30
2019-04-20T13:57:10.180Z,31.40
2019-04-20T13:59:50.030Z,31.90
2019-04-20T14:02:40.760Z,32.50
2019-04-20T14:05:16.850Z,32.60
2019-04-20T14:07:51.366Z,32.80
2019-04-20T14:10:24.509Z,32.70
2019-04-20T14:13:03.350Z,32.50
2019-04-20T14:15:33.221Z,32.40
2019-04-20T14:18:06.973Z,32.70
2019-04-20T14:20:40.300Z,32.80
2019-04-20T14:23:14.836Z,33.10
2019-04-20T14:25:49.132Z,33.30
2019-04-20T14:28:23.005Z,33.20
2019-04-20T14:30:56.191Z,32.90
2019-04-20T14:33:30.667Z,32.80
2019-04-20T14:36:05.081Z,33.00
2019-04-20T14:38:38.354Z,32.90
2019-04-20T14:41:12.603Z,33.10
2019-04-20T14:43:46.857Z,33.20
2019-04-20T14:46:20.970Z,33.80
2019-04-20T14:48:54.608Z,33.90
2019-04-20T14:51:27.939Z,33.30
2019-04-20T14:54:01.394Z,32.50
2019-04-20T14:56:35.816Z,32.30
2019-04-20T14:59:31.688Z,33.10
2019-04-20T15:02:13.130Z,33.30
2019-04-20T15:04:47.318Z,32.00
2019-04-20T15:07:20.568Z,32.30
2019-04-20T15:09:54.974Z,32.60
2019-04-20T15:12:39.462Z,33.50
2019-04-20T15:15:03.216Z,34.00
2019-04-20T15:17:41.791Z,34.20
2019-04-20T15:20:29.778Z,34.10
2019-04-20T15:23:09.617Z,33.90
2019-04-20T15:25:42.595Z,33.80
2019-04-20T15:28:16.497Z,33.90
2019-04-20T15:30:49.965Z,33.90
2019-04-20T15:33:23.138Z,33.10
2019-04-20T15:35:55.960Z,32.70
2019-04-20T15:38:29.172Z,32.50
2019-04-20T15:41:02.994Z,32.60
2019-04-20T15:43:37.305Z,31.90
2019-04-20T15:46:10.564Z,32.20
2019-04-20T15:48:43.998Z,32.00
2019-04-20T15:51:17.335Z,32.00
2019-04-20T15:53:51.445Z,31.90
2019-04-20T15:56:24.918Z,32.30
2019-04-20T15:58:58.731Z,32.10
2019-04-20T16:01:36.605Z,32.10
2019-04-20T16:04:36.119Z,32.10
2019-04-20T16:07:08.444Z,32.20
2019-04-20T16:09:42.159Z,32.30
2019-04-20T16:12:15.204Z,32.50
2019-04-20T16:14:49.406Z,31.50
2019-04-20T16:17:24.292Z,31.00
2019-04-20T16:20:06.001Z,30.60
2019-04-20T16:22:32.272Z,29.90
2019-04-20T16:25:19.272Z,29.30
2019-04-20T16:27:53.768Z,28.60
2019-04-20T16:30:27.567Z,28.10
2019-04-20T16:33:00.847Z,27.70
2019-04-20T16:35:34.252Z,27.40
2019-04-20T16:38:08.609Z,27.20
2019-04-20T16:40:42.118Z,27.00
2019-04-20T16:43:23.974Z,27.10
2019-04-20T16:45:50.992Z,27.00
2019-04-20T16:48:24.220Z,26.80
2019-04-20T16:50:58.684Z,26.80
2019-04-20T16:53:32.925Z,26.70
2019-04-20T16:56:06.583Z,26.40
2019-04-20T16:58:39.958Z,26.20
2019-04-20T17:01:13.761Z,26.10
2019-04-20T17:03:58.518Z,26.10
2019-04-20T17:06:22.268Z,25.90
2019-04-20T17:08:56.543Z,25.60
2019-04-20T17:11:29.997Z,25.30
2019-04-20T17:14:03.658Z,25.00
2019-04-20T17:16:37.672Z,24.80
2019-04-20T17:19:10.763Z,24.80
2019-04-20T17:21:44.542Z,24.70
2019-04-20T17:24:17.597Z,24.60
2019-04-20T17:27:08.866Z,24.60
2019-04-20T17:30:07.411Z,24.70
2019-04-20T17:32:41.250Z,24.60
2019-04-20T17:35:27.397Z,24.60
2019-04-20T17:37:50.352Z,24.50
2019-04-20T17:40:44.308Z,24.20
2019-04-20T17:43:06.528Z,24.20
2019-04-20T17:45:44.608Z,24.20
2019-04-20T17:48:27.002Z,24.50
2019-04-20T17:51:04.882Z,24.50
2019-04-20T17:53:46.642Z,24.20
2019-04-20T17:56:12.183Z,24.00
2019-04-20T17:58:46.114Z,23.70
2019-04-20T18:01:48.944Z,23.40
2019-04-20T18:04:46.527Z,23.20
2019-04-20T18:06:58.983Z,22.90
2019-04-20T18:09:46.471Z,22.70
2019-04-20T18:12:00.355Z,22.60
2019-04-20T18:14:46.655Z,22.40
2019-04-20T18:17:32.170Z,22.30
2019-04-20T18:20:03.113Z,22.10
2019-04-20T18:22:38.399Z,21.90
2019-04-20T18:25:29.735Z,21.80
2019-04-20T18:28:09.080Z,21.70
2019-04-20T18:30:48.814Z,21.70
2019-04-20T18:33:18.855Z,21.60
2019-04-20T18:35:52.226Z,21.40
2019-04-20T18:38:26.217Z,21.30
2019-04-20T18:41:05.569Z,21.30
2019-04-20T18:43:42.666Z,21.20
2019-04-20T18:46:29.351Z,21.10
2019-04-20T18:49:01.566Z,21.10
2019-04-20T18:51:19.651Z,21.00
2019-04-20T18:53:53.886Z,20.90
2019-04-20T18:56:32.359Z,20.90
2019-04-20T18:59:03.090Z,20.80
2019-04-20T19:01:39.563Z,20.80
2019-04-20T19:04:12.030Z,20.70
2019-04-20T19:06:45.930Z,20.70
2019-04-20T19:09:25.009Z,20.70
2019-04-20T19:12:00.830Z,20.60
2019-04-20T19:14:49.495Z,20.50
2019-04-20T19:18:06.983Z,20.50
2019-04-20T19:20:33.027Z,20.40
2019-04-20T19:23:06.324Z,20.40
2019-04-20T19:25:42.376Z,20.40
2019-04-20T19:28:19.461Z,20.30
2019-04-20T19:31:01.593Z,20.20
2019-04-20T19:33:37.831Z,20.20
2019-04-20T19:36:14.180Z,20.10
2019-04-20T19:38:47.767Z,20.10
2019-04-20T19:41:26.628Z,20.00
2019-04-20T19:43:55.003Z,20.00
2019-04-20T19:46:46.317Z,19.90
2019-04-20T19:49:04.144Z,19.80
2019-04-20T19:51:48.070Z,19.70
2019-04-20T19:54:23.857Z,19.60
2019-04-20T19:56:48.263Z,19.60
2019-04-20T19:59:23.579Z,19.50
2019-04-20T20:01:47.654Z,19.40
2019-04-20T20:04:21.721Z,19.40
2019-04-20T20:07:03.127Z,19.30
2019-04-20T20:09:39.575Z,19.20
2019-04-20T20:12:14.549Z,19.20
2019-04-20T20:14:50.016Z,19.10
2019-04-20T20:17:44.330Z,19.10
2019-04-20T20:20:20.000Z,19.10
2019-04-20T20:22:38.930Z,19.00
2019-04-20T20:25:07.192Z,18.90
2019-04-20T20:27:49.205Z,18.90
2019-04-20T20:30:24.474Z,18.90
2019-04-20T20:33:04.925Z,18.80
2019-04-20T20:35:27.694Z,18.80
2019-04-20T20:38:02.531Z,18.70
2019-04-20T20:40:38.489Z,18.70
2019-04-20T20:43:18.790Z,18.70
2019-04-20T20:46:00.282Z,18.60
2019-04-20T20:48:35.618Z,18.60
2019-04-20T20:51:09.175Z,18.60
2019-04-20T20:53:42.864Z,18.60
2019-04-20T20:56:15.131Z,18.50
2019-04-20T20:58:48.615Z,18.50
2019-04-20T21:01:22.239Z,18.50
2019-04-20T21:03:53.123Z,18.40
2019-04-20T21:06:24.400Z,18.40
2019-04-20T21:08:59.908Z,18.40
2019-04-20T21:11:34.811Z,18.30
2019-04-20T21:14:07.299Z,18.30
2019-04-20T21:16:46.863Z,18.20
2019-04-20T21:19:28.631Z,18.10
2019-04-20T21:21:58.963Z,18.10
2019-04-20T21:24:28.774Z,18.10
2019-04-20T21:27:07.821Z,18.00
2019-04-20T21:29:44.354Z,18.00
2019-04-20T21:32:14.747Z,18.00
2019-04-20T21:34:51.815Z,17.90
2019-04-20T21:37:24.987Z,17.90
2019-04-20T21:40:00.563Z,17.80
2019-04-20T21:42:39.993Z,17.80
2019-04-20T21:45:15.796Z,17.80
2019-04-20T21:47:43.570Z,17.80
2019-04-20T21:50:31.145Z,17.70
2019-04-20T21:52:55.141Z,17.70
2019-04-20T21:55:26.346Z,17.70
2019-04-20T21:58:00.829Z,17.70
2019-04-20T22:01:05.136Z,17.60
2019-04-20T22:03:27.923Z,17.60
2019-04-20T22:06:08.757Z,17.60
2019-04-20T22:08:49.375Z,17.60
2019-04-20T22:11:17.847Z,17.60
2019-04-20T22:13:52.770Z,17.60
2019-04-20T22:16:37.412Z,17.60
2019-04-20T22:19:16.111Z,17.60
2019-04-20T22:21:50.213Z,17.50
2019-04-20T22:24:43.803Z,17.50
2019-04-20T22:27:09.546Z,17.60
2019-04-20T22:29:38.523Z,17.60
2019-04-20T22:32:14.858Z,17.50
2019-04-20T22:34:54.075Z,17.50
2019-04-20T22:37:28.301Z,17.50
2019-04-20T22:39:58.328Z,17.50
2019-04-20T22:42:37.744Z,17.40
2019-04-20T22:45:11.826Z,17.40
2019-04-20T22:47:42.654Z,17.30
2019-04-20T22:50:33.599Z,17.30
2019-04-20T22:53:05.035Z,17.30
2019-04-20T22:55:50.142Z,17.30
2019-04-20T22:58:14.199Z,17.20
2019-04-20T23:00:42.177Z,17.20
2019-04-20T23:03:10.089Z,17.20
2019-04-20T23:05:42.960Z,17.10
2019-04-20T23:08:17.011Z,17.10
2019-04-20T23:10:51.337Z,17.10
2019-04-20T23:13:29.469Z,17.10
2019-04-20T23:16:02.199Z,17.00
2019-04-20T23:18:33.962Z,17.00
2019-04-20T23:21:10.253Z,17.00
2019-04-20T23:23:41.848Z,17.00
2019-04-20T23:26:19.331Z,17.00
2019-04-20T23:28:52.531Z,16.90
2019-04-20T23:31:26.645Z,16.90
2019-04-20T23:34:01.361Z,16.90
2019-04-20T23:36:39.041Z,16.80
2019-04-20T23:39:08.805Z,16.70
2019-04-20T23:41:51.759Z,16.70
2019-04-20T23:44:48.263Z,16.70
2019-04-20T23:47:32.031Z,16.70
2019-04-20T23:50:22.395Z,16.60
2019-04-20T23:53:05.516Z,16.60
2019-04-20T23:55:19.007Z,16.50
2019-04-20T23:57:58.031Z,16.40
